Time;durP1;ratioP1;P1;durP2;ratioP2;P2;SDS_P1;SDS_P2;PMS_P1;PMS_P2;Temp;Humidity;BMP_temperature;BMP_pressure;BME280_temperature;BME280_humidity;BME280_pressure;Samples;Min_cycle;Max_cycle;Signal;HPM_P1;HPM_P2
2024/02/02 00:00:21;;;;;;;25.90;6.17;;;;;;;;;;5122361;28;20035;-60
2024/02/02 00:02:46;;;;;;;27.47;6.47;;;;;;;;;;5106676;28;20362;-59
2024/02/02 00:05:11;;;;;;;48.30;8.03;;;;;;;;;;5122457;28;20028;-60
2024/02/02 00:07:37;;;;;;;29.90;7.38;;;;;;;;;;5113166;28;20020;-60
2024/02/02 00:10:03;;;;;;;18.73;4.73;;;;;;;;;;5122580;28;20028;-60
2024/02/02 00:12:29;;;;;;;24.98;5.68;;;;;;;;;;5113306;28;20260;-59
2024/02/02 00:14:54;;;;;;;28.38;7.10;;;;;;;;;;5117396;28;20061;-60
2024/02/02 00:17:20;;;;;;;34.73;6.83;;;;;;;;;;5109804;28;20026;-59
2024/02/02 00:19:46;;;;;;;36.63;7.97;;;;;;;;;;5118129;28;20043;-60
2024/02/02 00:22:11;;;;;;;28.30;7.18;;;;;;;;;;5118175;27;20020;-59
2024/02/02 00:24:36;;;;;;;28.35;7.38;;;;;;;;;;5110131;28;20035;-61
2024/02/02 00:27:02;;;;;;;31.40;6.17;;;;;;;;;;5118049;28;20043;-60
2024/02/02 00:29:28;;;;;;;18.08;5.13;;;;;;;;;;5115625;28;20094;-60
2024/02/02 00:31:54;;;;;;;25.67;5.80;;;;;;;;;;5105476;28;20032;-60
2024/02/02 00:34:19;;;;;;;21.50;5.77;;;;;;;;;;5114794;28;20039;-59
2024/02/02 00:36:45;;;;;;;36.17;7.20;;;;;;;;;;5114972;28;20265;-59
2024/02/02 00:39:10;;;;;;;26.67;6.10;;;;;;;;;;5111719;28;20035;-59
2024/02/02 00:41:36;;;;;;;26.50;6.55;;;;;;;;;;5115621;28;20091;-60
2024/02/02 00:44:01;;;;;;;36.77;6.33;;;;;;;;;;5122960;28;20118;-60
2024/02/02 00:46:28;;;;;;;25.90;6.50;;;;;;;;;;5117619;28;20056;-59
2024/02/02 00:48:54;;;;;;;32.70;5.63;;;;;;;;;;5113878;28;20111;-59
2024/02/02 00:51:19;;;;;;;28.50;5.40;;;;;;;;;;5114646;28;20114;-60
2024/02/02 00:53:45;;;;;;;23.47;7.00;;;;;;;;;;5118983;28;20030;-60
2024/02/02 00:56:10;;;;;;;28.27;5.90;;;;;;;;;;5114987;28;20276;-59
2024/02/02 00:58:36;;;;;;;25.25;5.95;;;;;;;;;;5114513;28;20047;-60
2024/02/02 01:01:02;;;;;;;47.77;5.93;;;;;;;;;;5116025;28;20036;-59
2024/02/02 01:03:28;;;;;;;25.08;5.80;;;;;;;;;;5115160;28;20095;-60
2024/02/02 01:05:54;;;;;;;23.55;4.85;;;;;;;;;;5120273;28;20036;-60
2024/02/02 01:08:19;;;;;;;18.03;4.13;;;;;;;;;;5118298;28;20110;-59
2024/02/02 01:10:45;;;;;;;35.50;5.97;;;;;;;;;;5102929;28;20031;-58
2024/02/02 01:13:10;;;;;;;40.20;5.90;;;;;;;;;;5114461;28;20338;-61
2024/02/02 01:15:36;;;;;;;23.00;5.28;;;;;;;;;;5124977;28;20039;-59
2024/02/02 01:18:02;;;;;;;23.03;5.80;;;;;;;;;;5114281;28;20044;-59
2024/02/02 01:20:28;;;;;;;23.93;5.43;;;;;;;;;;5118628;28;20046;-60
2024/02/02 01:22:53;;;;;;;25.30;6.97;;;;;;;;;;5113058;28;20037;-59
2024/02/02 01:25:19;;;;;;;35.15;5.82;;;;;;;;;;5121852;28;20041;-59
2024/02/02 01:27:45;;;;;;;29.98;6.35;;;;;;;;;;5114801;28;20091;-60
2024/02/02 01:30:13;;;;;;;26.93;5.47;;;;;;;;;;5102021;28;20055;-60
2024/02/02 01:32:39;;;;;;;21.63;5.57;;;;;;;;;;5113785;28;20271;-56
2024/02/02 01:35:04;;;;;;;23.37;4.17;;;;;;;;;;5114452;28;20028;-59
2024/02/02 01:37:30;;;;;;;25.08;6.10;;;;;;;;;;5118009;28;20474;-58
2024/02/02 01:39:56;;;;;;;20.80;5.25;;;;;;;;;;5118378;28;20028;-58
2024/02/02 01:42:22;;;;;;;19.23;4.87;;;;;;;;;;5125087;28;20080;-57
2024/02/02 01:44:48;;;;;;;30.13;5.40;;;;;;;;;;5125854;28;20039;-58
2024/02/02 01:47:13;;;;;;;17.10;4.80;;;;;;;;;;5120057;28;20265;-59
2024/02/02 01:49:39;;;;;;;27.47;5.90;;;;;;;;;;5117253;28;20035;-60
2024/02/02 01:52:04;;;;;;;36.27;7.07;;;;;;;;;;5118306;28;20111;-60
2024/02/02 01:54:30;;;;;;;30.85;5.75;;;;;;;;;;5118289;28;20035;-61
2024/02/02 01:56:56;;;;;;;17.27;5.00;;;;;;;;;;5118272;28;20095;-60
2024/02/02 01:59:21;;;;;;;30.70;7.17;;;;;;;;;;5121723;28;20058;-59
2024/02/02 02:01:47;;;;;;;38.95;6.97;;;;;;;;;;5126822;28;20027;-58
2024/02/02 02:04:12;;;;;;;30.73;5.20;;;;;;;;;;5121468;28;20044;-59
2024/02/02 02:06:39;;;;;;;28.60;6.50;;;;;;;;;;5112728;28;20028;-59
2024/02/02 02:09:06;;;;;;;27.77;6.45;;;;;;;;;;5107613;28;20095;-59
2024/02/02 02:11:31;;;;;;;32.35;6.05;;;;;;;;;;5118208;28;20028;-58
2024/02/02 02:13:57;;;;;;;29.87;5.77;;;;;;;;;;5118828;28;20056;-60
2024/02/02 02:16:22;;;;;;;38.57;6.07;;;;;;;;;;5128435;28;20275;-60
2024/02/02 02:18:48;;;;;;;35.35;6.85;;;;;;;;;;5117217;28;20040;-60
2024/02/02 02:21:20;;;;;;;28.93;5.13;;;;;;;;;;5118115;28;20031;-60
2024/02/02 02:23:46;;;;;;;30.25;6.38;;;;;;;;;;5117483;28;20028;-60
2024/02/02 02:26:11;;;;;;;21.93;5.87;;;;;;;;;;5117586;28;20066;-58
2024/02/02 02:28:37;;;;;;;24.70;6.70;;;;;;;;;;5128283;28;20433;-59
2024/02/02 02:31:04;;;;;;;26.98;6.90;;;;;;;;;;5117506;28;20059;-60
2024/02/02 02:33:30;;;;;;;29.00;6.63;;;;;;;;;;5117212;28;20030;-59
2024/02/02 02:35:56;;;;;;;39.87;9.03;;;;;;;;;;5117343;28;20056;-59
2024/02/02 02:38:21;;;;;;;30.67;5.75;;;;;;;;;;5117380;28;20028;-59
2024/02/02 02:40:47;;;;;;;29.10;5.97;;;;;;;;;;5122755;28;20046;-59
2024/02/02 02:43:12;;;;;;;27.87;6.10;;;;;;;;;;5117287;28;20306;-60
2024/02/02 02:45:38;;;;;;;21.67;6.83;;;;;;;;;;5117593;28;20028;-60
2024/02/02 02:48:03;;;;;;;22.63;6.33;;;;;;;;;;5119047;28;20292;-58
2024/02/02 02:50:29;;;;;;;33.30;6.57;;;;;;;;;;5119916;28;20024;-59
2024/02/02 02:52:54;;;;;;;28.00;6.67;;;;;;;;;;5116497;28;20273;-59
2024/02/02 02:55:20;;;;;;;28.60;6.60;;;;;;;;;;5117676;28;20036;-60
2024/02/02 02:57:45;;;;;;;22.53;6.67;;;;;;;;;;5124460;28;20279;-57
2024/02/02 03:00:12;;;;;;;21.47;6.67;;;;;;;;;;5116522;28;20103;-57
2024/02/02 03:02:37;;;;;;;46.08;7.20;;;;;;;;;;5116718;28;20051;-59
2024/02/02 03:05:03;;;;;;;17.23;5.50;;;;;;;;;;5123520;28;20040;-60
2024/02/02 03:07:29;;;;;;;19.53;6.27;;;;;;;;;;5128679;28;20024;-60
2024/02/02 03:09:54;;;;;;;25.73;6.83;;;;;;;;;;5125764;28;20324;-57
2024/02/02 03:12:20;;;;;;;33.17;6.87;;;;;;;;;;5107830;28;20248;-57
2024/02/02 03:14:45;;;;;;;21.27;5.97;;;;;;;;;;5119330;28;20028;-59
2024/02/02 03:17:12;;;;;;;29.92;6.78;;;;;;;;;;5121400;28;20322;-57
2024/02/02 03:19:38;;;;;;;23.33;5.38;;;;;;;;;;5119148;28;20095;-59
2024/02/02 03:22:03;;;;;;;15.47;4.77;;;;;;;;;;5116315;28;20032;-60
2024/02/02 03:24:29;;;;;;;21.20;5.77;;;;;;;;;;5116773;28;20268;-60
2024/02/02 03:26:55;;;;;;;20.55;4.80;;;;;;;;;;5118442;28;20040;-58
2024/02/02 03:29:21;;;;;;;15.40;4.80;;;;;;;;;;5126683;28;20038;-60
2024/02/02 03:31:47;;;;;;;26.23;6.20;;;;;;;;;;5115702;28;20050;-58
2024/02/02 03:34:12;;;;;;;27.73;6.83;;;;;;;;;;5116494;28;20024;-60
2024/02/02 03:36:38;;;;;;;26.93;6.37;;;;;;;;;;5116208;28;20268;-61
2024/02/02 03:39:03;;;;;;;19.40;6.70;;;;;;;;;;5118012;28;20043;-59
2024/02/02 03:41:29;;;;;;;24.80;5.33;;;;;;;;;;5130524;28;20299;-59
2024/02/02 03:43:56;;;;;;;24.63;6.32;;;;;;;;;;5116242;28;20028;-59
2024/02/02 03:46:22;;;;;;;27.48;5.55;;;;;;;;;;5115870;28;20043;-59
2024/02/02 03:48:48;;;;;;;23.63;4.87;;;;;;;;;;5123796;28;20032;-59
2024/02/02 03:51:14;;;;;;;23.50;5.78;;;;;;;;;;5105946;28;20261;-59
2024/02/02 03:53:40;;;;;;;22.87;5.80;;;;;;;;;;5104925;28;20031;-57
2024/02/02 03:56:05;;;;;;;20.70;4.27;;;;;;;;;;5123545;28;20031;-58
2024/02/02 03:58:31;;;;;;;18.98;4.47;;;;;;;;;;5115956;28;20032;-59
2024/02/02 04:00:56;;;;;;;21.37;4.80;;;;;;;;;;5103523;28;20032;-57
2024/02/02 04:03:22;;;;;;;30.20;4.97;;;;;;;;;;5110888;28;20028;-60
2024/02/02 04:05:47;;;;;;;18.87;5.23;;;;;;;;;;5118961;28;20300;-58
2024/02/02 04:08:13;;;;;;;25.10;4.88;;;;;;;;;;5116603;28;21343;-59
2024/02/02 04:10:38;;;;;;;22.97;5.13;;;;;;;;;;5114152;28;20091;-58
2024/02/02 04:13:04;;;;;;;20.03;4.30;;;;;;;;;;5115721;28;20032;-58
2024/02/02 04:15:30;;;;;;;21.63;4.75;;;;;;;;;;5115593;28;20024;-60
2024/02/02 04:17:55;;;;;;;24.00;5.03;;;;;;;;;;5115490;28;20039;-59
2024/02/02 04:20:22;;;;;;;15.32;3.88;;;;;;;;;;5115387;28;20252;-58
2024/02/02 04:22:47;;;;;;;22.33;4.93;;;;;;;;;;5115010;28;20028;-59
2024/02/02 04:25:13;;;;;;;20.77;4.47;;;;;;;;;;5115415;28;20035;-59
2024/02/02 04:27:39;;;;;;;34.40;5.17;;;;;;;;;;5115431;28;20288;-62
2024/02/02 04:30:04;;;;;;;32.90;5.17;;;;;;;;;;5115207;28;20028;-59
2024/02/02 04:32:32;;;;;;;18.20;4.53;;;;;;;;;;5115198;28;20059;-60
2024/02/02 04:34:58;;;;;;;21.38;5.63;;;;;;;;;;5115133;28;20103;-59
2024/02/02 04:37:23;;;;;;;21.83;4.72;;;;;;;;;;5118927;28;20023;-60
2024/02/02 04:39:49;;;;;;;19.57;4.93;;;;;;;;;;5123209;28;20035;-58
2024/02/02 04:42:14;;;;;;;22.27;5.17;;;;;;;;;;5117287;28;20035;-57
2024/02/02 04:44:40;;;;;;;24.23;4.83;;;;;;;;;;5122538;28;20259;-59
2024/02/02 04:47:06;;;;;;;20.90;5.28;;;;;;;;;;5122500;28;20028;-59
2024/02/02 04:49:32;;;;;;;18.30;4.80;;;;;;;;;;5121583;28;20068;-59
2024/02/02 04:51:57;;;;;;;16.45;4.22;;;;;;;;;;5125403;28;20089;-58
2024/02/02 04:54:23;;;;;;;35.13;5.37;;;;;;;;;;5114931;28;20047;-57
2024/02/02 04:56:48;;;;;;;28.17;5.10;;;;;;;;;;5115007;28;20264;-58
2024/02/02 04:59:14;;;;;;;21.50;4.80;;;;;;;;;;5116048;28;20036;-60
2024/02/02 05:01:39;;;;;;;28.20;5.30;;;;;;;;;;5114625;28;20283;-59
2024/02/02 05:04:05;;;;;;;26.43;4.90;;;;;;;;;;5114213;28;20043;-59
2024/02/02 05:06:30;;;;;;;21.48;4.68;;;;;;;;;;5114895;28;20434;-60
2024/02/02 05:08:56;;;;;;;22.90;5.03;;;;;;;;;;5127910;28;20032;-58
2024/02/02 05:11:21;;;;;;;26.33;5.00;;;;;;;;;;5125610;28;20264;-60
2024/02/02 05:13:47;;;;;;;28.87;5.73;;;;;;;;;;5100669;28;20033;-59
2024/02/02 05:16:12;;;;;;;25.40;4.33;;;;;;;;;;5124682;28;20268;-60
2024/02/02 05:18:38;;;;;;;24.03;5.53;;;;;;;;;;5119720;28;20034;-60
2024/02/02 05:21:03;;;;;;;15.63;5.03;;;;;;;;;;5112964;28;20374;-59
2024/02/02 05:23:29;;;;;;;24.83;5.83;;;;;;;;;;5113955;28;20032;-59
2024/02/02 05:25:54;;;;;;;25.70;5.70;;;;;;;;;;5118197;28;20351;-59
2024/02/02 05:28:20;;;;;;;20.53;5.03;;;;;;;;;;5125917;28;20058;-59
2024/02/02 05:30:45;;;;;;;25.47;5.50;;;;;;;;;;5108711;28;20278;-58
2024/02/02 05:33:11;;;;;;;14.83;4.80;;;;;;;;;;5125021;28;20032;-58
2024/02/02 05:35:37;;;;;;;28.33;6.00;;;;;;;;;;5114673;28;20257;-60
2024/02/02 05:38:02;;;;;;;24.35;5.43;;;;;;;;;;5116756;28;20087;-58
2024/02/02 05:40:28;;;;;;;17.05;5.15;;;;;;;;;;5110281;28;20028;-60
2024/02/02 05:42:54;;;;;;;18.90;5.65;;;;;;;;;;5114215;28;20040;-58
2024/02/02 05:45:19;;;;;;;15.53;4.47;;;;;;;;;;5111424;28;20036;-59
2024/02/02 05:47:45;;;;;;;21.00;5.22;;;;;;;;;;5112052;28;20632;-60
2024/02/02 05:50:10;;;;;;;25.57;5.40;;;;;;;;;;5112738;28;20072;-58
2024/02/02 05:52:35;;;;;;;19.80;4.53;;;;;;;;;;5117301;28;20027;-57
2024/02/02 05:55:01;;;;;;;14.20;4.50;;;;;;;;;;5112899;28;20043;-58
2024/02/02 05:57:26;;;;;;;25.25;5.32;;;;;;;;;;5114881;28;20050;-61
2024/02/02 05:59:52;;;;;;;20.07;6.50;;;;;;;;;;5118510;28;20060;-57
2024/02/02 06:02:17;;;;;;;24.93;6.83;;;;;;;;;;5113533;28;20036;-57
2024/02/02 06:04:43;;;;;;;21.13;4.63;;;;;;;;;;5111751;28;20245;-59
2024/02/02 06:07:08;;;;;;;21.87;4.83;;;;;;;;;;5112980;28;20036;-58
2024/02/02 06:09:34;;;;;;;19.40;4.97;;;;;;;;;;5123264;28;20275;-59
2024/02/02 06:11:59;;;;;;;26.67;5.80;;;;;;;;;;5118446;28;20058;-60
2024/02/02 06:14:27;;;;;;;23.83;4.93;;;;;;;;;;5127059;28;20047;-59
2024/02/02 06:16:52;;;;;;;21.15;5.05;;;;;;;;;;5124944;28;20107;-60
2024/02/02 06:19:18;;;;;;;30.07;6.80;;;;;;;;;;5117700;28;20036;-61
2024/02/02 06:21:43;;;;;;;29.97;5.90;;;;;;;;;;5119830;28;20303;-59
2024/02/02 06:24:08;;;;;;;19.17;5.00;;;;;;;;;;5115965;28;20085;-61
2024/02/02 06:26:36;;;;;;;27.95;5.25;;;;;;;;;;5127360;28;20039;-60
2024/02/02 06:29:03;;;;;;;25.85;5.63;;;;;;;;;;5104753;28;20032;-58
2024/02/02 06:31:28;;;;;;;35.63;5.72;;;;;;;;;;5129579;28;20024;-60
2024/02/02 06:33:54;;;;;;;25.73;6.60;;;;;;;;;;5105434;28;20042;-59
2024/02/02 06:36:24;;;;;;;23.13;5.17;;;;;;;;;;5125903;28;20023;-60
2024/02/02 06:38:59;;;;;;;23.33;5.30;;;;;;;;;;5099608;28;20277;-59
2024/02/02 06:41:24;;;;;;;29.88;6.13;;;;;;;;;;5117296;28;20028;-60
2024/02/02 06:43:49;;;;;;;24.13;5.57;;;;;;;;;;5118852;28;20051;-60
2024/02/02 06:46:15;;;;;;;27.07;5.43;;;;;;;;;;5116094;28;20040;-59
2024/02/02 06:48:42;;;;;;;24.45;5.82;;;;;;;;;;5117594;28;20066;-60
2024/02/02 06:51:08;;;;;;;30.17;5.22;;;;;;;;;;5119114;28;20045;-60
2024/02/02 06:53:35;;;;;;;28.17;7.17;;;;;;;;;;5116963;28;20023;-60
2024/02/02 06:56:01;;;;;;;21.77;5.60;;;;;;;;;;5117404;28;20332;-60
2024/02/02 06:58:41;;;;;;;21.83;4.87;;;;;;;;;;5119762;28;20024;-60
2024/02/02 07:01:07;;;;;;;36.72;6.10;;;;;;;;;;5116344;28;20031;-59
2024/02/02 07:03:33;;;;;;;32.58;6.03;;;;;;;;;;5118434;28;20059;-59
2024/02/02 07:05:58;;;;;;;24.70;6.32;;;;;;;;;;5127563;28;20065;-60
2024/02/02 07:08:24;;;;;;;25.55;6.60;;;;;;;;;;5120324;28;20027;-58
2024/02/02 07:10:57;;;;;;;24.57;6.07;;;;;;;;;;5115246;28;20024;-60
2024/02/02 07:13:23;;;;;;;30.60;6.28;;;;;;;;;;5103394;28;20028;-60
2024/02/02 07:15:48;;;;;;;23.37;5.83;;;;;;;;;;5116473;28;20028;-59
2024/02/02 07:18:28;;;;;;;25.87;7.07;;;;;;;;;;5128341;28;20055;-58
2024/02/02 07:20:59;;;;;;;28.13;6.15;;;;;;;;;;5100098;28;20272;-59
2024/02/02 07:23:31;;;;;;;31.45;9.00;;;;;;;;;;5113822;28;20035;-59
2024/02/02 07:25:56;;;;;;;36.75;8.82;;;;;;;;;;5116173;28;20038;-59
2024/02/02 07:28:37;;;;;;;45.87;7.77;;;;;;;;;;5116252;28;20051;-61
2024/02/02 07:31:08;;;;;;;30.13;7.90;;;;;;;;;;5126530;28;20031;-59
2024/02/02 07:33:38;;;;;;;29.48;7.47;;;;;;;;;;5115021;28;20024;-59
2024/02/02 07:36:04;;;;;;;33.50;9.00;;;;;;;;;;5115109;28;20024;-59
2024/02/02 07:38:39;;;;;;;35.40;9.00;;;;;;;;;;5125074;28;20046;-59
2024/02/02 07:41:05;;;;;;;44.70;11.25;;;;;;;;;;5117092;28;20063;-60
2024/02/02 07:43:33;;;;;;;36.08;9.57;;;;;;;;;;5114948;28;20057;-56
2024/02/02 07:46:04;;;;;;;44.45;10.40;;;;;;;;;;5114892;28;20053;-59
2024/02/02 07:48:30;;;;;;;35.30;9.98;;;;;;;;;;5115167;28;20062;-59
2024/02/02 07:50:56;;;;;;;34.38;9.38;;;;;;;;;;5117346;28;20032;-58
2024/02/02 07:53:22;;;;;;;36.40;9.60;;;;;;;;;;5114994;28;20045;-61
2024/02/02 07:55:47;;;;;;;41.75;10.40;;;;;;;;;;5116247;28;20263;-60
2024/02/02 07:58:13;;;;;;;39.30;10.03;;;;;;;;;;5115059;28;20036;-59
2024/02/02 08:00:38;;;;;;;35.40;10.30;;;;;;;;;;5120157;28;20032;-60
2024/02/02 08:03:05;;;;;;;44.25;11.20;;;;;;;;;;5113405;28;20074;-60
2024/02/02 08:05:30;;;;;;;33.95;9.68;;;;;;;;;;5115033;28;20040;-60
2024/02/02 08:07:56;;;;;;;38.17;10.88;;;;;;;;;;5119209;28;20085;-60
2024/02/02 08:10:22;;;;;;;46.13;10.27;;;;;;;;;;5116788;28;20083;-60
2024/02/02 08:12:47;;;;;;;33.20;9.32;;;;;;;;;;5118386;28;20260;-59
2024/02/02 08:15:13;;;;;;;34.73;10.73;;;;;;;;;;5121416;28;20087;-59
2024/02/02 08:17:38;;;;;;;34.72;9.32;;;;;;;;;;5115091;28;20024;-59
2024/02/02 08:20:04;;;;;;;42.43;13.10;;;;;;;;;;5125474;28;20393;-59
2024/02/02 08:22:29;;;;;;;47.22;11.18;;;;;;;;;;5117659;28;20024;-58
2024/02/02 08:24:55;;;;;;;31.23;10.33;;;;;;;;;;5111420;28;20039;-57
2024/02/02 08:27:21;;;;;;;44.97;10.90;;;;;;;;;;5114137;28;20044;-59
2024/02/02 08:29:47;;;;;;;27.00;10.50;;;;;;;;;;5122034;28;20268;-58
2024/02/02 08:32:13;;;;;;;41.13;9.77;;;;;;;;;;5118389;28;20020;-58
2024/02/02 08:34:38;;;;;;;40.93;9.83;;;;;;;;;;5119603;28;20032;-60
2024/02/02 08:37:04;;;;;;;39.03;11.23;;;;;;;;;;5114943;28;20340;-60
2024/02/02 08:39:30;;;;;;;;;;;;;;;;;;5115742;28;20023;-60
2024/02/02 08:41:56;;;;;;;39.37;10.60;;;;;;;;;;5113542;28;19940;-58
2024/02/02 08:44:23;;;;;;;46.87;11.37;;;;;;;;;;5119123;28;20031;-59
2024/02/02 08:46:49;;;;;;;47.33;11.23;;;;;;;;;;5114424;28;20075;-59
2024/02/02 08:49:42;;;;;;;34.80;10.93;;;;;;;;;;5117726;28;20061;-59
2024/02/02 08:52:11;;;;;;;41.58;12.60;;;;;;;;;;5118254;28;20032;-59
2024/02/02 08:54:37;;;;;;;43.88;13.60;;;;;;;;;;5117668;28;20020;-60
2024/02/02 08:57:09;;;;;;;36.47;10.77;;;;;;;;;;5117457;28;20070;-60
2024/02/02 08:59:43;;;;;;;43.67;12.27;;;;;;;;;;5115965;28;20038;-61
2024/02/02 09:02:19;;;;;;;48.22;13.30;;;;;;;;;;5114973;28;20040;-59
2024/02/02 09:04:51;;;;;;;60.15;13.88;;;;;;;;;;5110553;28;20135;-60
2024/02/02 09:07:17;;;;;;;40.83;11.70;;;;;;;;;;5116138;28;20056;-60
2024/02/02 09:09:43;;;;;;;35.73;12.23;;;;;;;;;;5120877;28;20046;-60
2024/02/02 09:12:09;;;;;;;51.35;13.13;;;;;;;;;;5113407;28;20051;-58
2024/02/02 09:14:35;;;;;;;46.70;16.35;;;;;;;;;;5114271;28;20036;-59
2024/02/02 09:17:00;;;;;;;39.53;12.73;;;;;;;;;;5114292;28;20103;-58
2024/02/02 09:19:27;;;;;;;47.27;13.93;;;;;;;;;;5119911;28;20056;-60
2024/02/02 09:21:55;;;;;;;51.88;13.05;;;;;;;;;;5118894;28;20040;-59
2024/02/02 09:24:23;;;;;;;56.85;14.18;;;;;;;;;;5113968;28;20070;-59
2024/02/02 09:26:49;;;;;;;45.80;15.70;;;;;;;;;;5112863;28;20032;-60
2024/02/02 09:29:14;;;;;;;46.70;14.07;;;;;;;;;;5116343;28;20042;-60
2024/02/02 09:31:40;;;;;;;33.97;13.23;;;;;;;;;;5103076;28;20035;-61
2024/02/02 09:34:06;;;;;;;48.00;14.40;;;;;;;;;;5113147;28;20050;-60
2024/02/02 09:36:33;;;;;;;43.05;13.95;;;;;;;;;;5112418;28;20032;-57
2024/02/02 09:39:03;;;;;;;39.45;13.88;;;;;;;;;;5099495;28;20032;-61
2024/02/02 09:41:40;;;;;;;35.08;14.23;;;;;;;;;;5117897;28;20020;-60
2024/02/02 09:44:09;;;;;;;44.35;15.65;;;;;;;;;;5115439;28;20034;-61
2024/02/02 09:46:47;;;;;;;42.22;13.25;;;;;;;;;;5116046;28;20024;-58
2024/02/02 09:49:18;;;;;;;52.25;13.40;;;;;;;;;;5113461;28;20038;-60
2024/02/02 09:51:44;;;;;;;47.97;13.45;;;;;;;;;;5113450;28;20044;-60
2024/02/02 09:54:25;;;;;;;43.13;13.10;;;;;;;;;;5114522;28;20031;-59
2024/02/02 09:56:56;;;;;;;37.90;13.47;;;;;;;;;;5130827;28;20255;-60
2024/02/02 09:59:21;;;;;;;40.35;13.35;;;;;;;;;;5117083;28;20260;-59
2024/02/02 10:02:09;;;;;;;37.17;15.10;;;;;;;;;;5117161;28;20040;-60
2024/02/02 10:04:38;;;;;;;44.72;14.15;;;;;;;;;;5119933;28;20032;-60
2024/02/02 10:07:19;;;;;;;36.85;12.85;;;;;;;;;;5123250;28;20024;-59
2024/02/02 10:09:50;;;;;;;32.60;13.25;;;;;;;;;;5108908;28;20023;-58
2024/02/02 10:12:24;;;;;;;39.10;13.90;;;;;;;;;;5118732;28;20028;-58
2024/02/02 10:15:03;;;;;;;60.58;13.63;;;;;;;;;;5119594;28;20035;-59
2024/02/02 10:17:37;;;;;;;41.45;12.38;;;;;;;;;;5111494;28;20035;-59
2024/02/02 10:20:21;;;;;;;46.65;14.52;;;;;;;;;;5112074;28;20040;-60
2024/02/02 10:22:47;;;;;;;45.08;13.35;;;;;;;;;;5116149;28;20028;-60
2024/02/02 10:25:39;;;;;;;57.50;16.90;;;;;;;;;;5119082;28;20031;-60
2024/02/02 10:28:11;;;;;;;45.53;13.60;;;;;;;;;;5113784;28;20035;-60
2024/02/02 10:30:37;;;;;;;41.40;14.02;;;;;;;;;;5126711;28;20020;-60
2024/02/02 10:33:12;;;;;;;43.35;16.83;;;;;;;;;;5110892;27;20035;-59
2024/02/02 10:35:44;;;;;;;43.63;14.03;;;;;;;;;;5114655;28;20044;-60
2024/02/02 10:38:28;;;;;;;45.63;14.13;;;;;;;;;;5115813;28;20269;-57
2024/02/02 10:41:08;;;;;;;49.10;16.27;;;;;;;;;;5116162;28;20295;-59
2024/02/02 10:43:37;;;;;;;45.93;15.13;;;;;;;;;;5117498;28;20263;-58
2024/02/02 10:46:17;;;;;;;61.70;15.80;;;;;;;;;;5114572;28;20276;-61
2024/02/02 10:48:49;;;;;;;46.57;14.67;;;;;;;;;;5118481;28;20332;-60
2024/02/02 10:51:20;;;;;;;39.93;14.87;;;;;;;;;;5116219;28;20265;-59
2024/02/02 10:53:56;;;;;;;36.93;14.60;;;;;;;;;;5113604;28;20260;-61
2024/02/02 10:56:28;;;;;;;42.53;13.90;;;;;;;;;;5112358;28;20300;-61
2024/02/02 10:59:06;;;;;;;43.63;14.87;;;;;;;;;;5117095;28;20288;-61
2024/02/02 11:01:53;;;;;;;45.10;14.57;;;;;;;;;;5112167;28;20295;-61
2024/02/02 11:04:22;;;;;;;46.75;14.02;;;;;;;;;;5111971;28;20256;-60
2024/02/02 11:07:07;;;;;;;43.93;15.77;;;;;;;;;;5115207;28;20062;-62
2024/02/02 11:09:53;;;;;;;53.70;15.33;;;;;;;;;;5112575;28;20269;-61
2024/02/02 11:12:18;;;;;;;43.20;14.07;;;;;;;;;;5118779;28;20378;-61
2024/02/02 11:14:47;;;;;;;38.57;13.30;;;;;;;;;;5114851;28;20269;-61
2024/02/02 11:17:15;;;;;;;37.00;14.20;;;;;;;;;;5115677;28;20042;-63
2024/02/02 11:19:50;;;;;;;45.07;14.07;;;;;;;;;;5127115;28;20264;-59
2024/02/02 11:22:18;;;;;;;42.17;14.17;;;;;;;;;;5117725;28;20332;-60
2024/02/02 11:25:08;;;;;;;32.37;13.13;;;;;;;;;;5116163;28;20272;-61
2024/02/02 11:27:37;;;;;;;38.67;13.43;;;;;;;;;;5109642;28;20272;-61
2024/02/02 11:30:06;;;;;;;37.97;13.70;;;;;;;;;;5130238;28;20285;-62
2024/02/02 11:32:39;;;;;;;41.20;12.73;;;;;;;;;;5117269;28;20261;-61
2024/02/02 11:35:11;;;;;;;42.43;13.53;;;;;;;;;;5119083;28;20715;-61
2024/02/02 11:38:01;;;;;;;44.57;14.87;;;;;;;;;;5116044;28;20284;-59
2024/02/02 11:40:28;;;;;;;47.83;14.00;;;;;;;;;;5105758;28;20271;-61
2024/02/02 11:42:55;;;;;;;54.42;14.18;;;;;;;;;;5117718;28;20261;-62
2024/02/02 11:45:25;;;;;;;33.90;12.47;;;;;;;;;;5115847;28;20066;-62
2024/02/02 11:47:57;;;;;;;42.87;13.13;;;;;;;;;;5115442;28;20263;-62
2024/02/02 11:50:25;;;;;;;40.03;14.30;;;;;;;;;;5113212;28;20272;-63
2024/02/02 11:52:57;;;;;;;50.00;13.37;;;;;;;;;;5114386;28;20269;-62
2024/02/02 11:55:31;;;;;;;43.60;13.93;;;;;;;;;;5119466;28;20258;-63
2024/02/02 11:57:59;;;;;;;47.87;15.10;;;;;;;;;;5112870;28;20256;-62
2024/02/02 12:00:34;;;;;;;41.30;14.93;;;;;;;;;;5123144;28;20271;-62
2024/02/02 12:03:16;;;;;;;51.90;15.90;;;;;;;;;;5111093;28;20257;-61
2024/02/02 12:05:54;;;;;;;48.17;16.40;;;;;;;;;;5104608;28;20272;-62
2024/02/02 12:08:24;;;;;;;47.63;15.23;;;;;;;;;;5109480;28;20267;-63
2024/02/02 12:10:50;;;;;;;43.23;15.67;;;;;;;;;;5112254;28;20271;-62
2024/02/02 12:13:22;;;;;;;42.25;15.07;;;;;;;;;;5115672;28;20296;-62
2024/02/02 12:15:50;;;;;;;50.80;16.73;;;;;;;;;;5115021;28;20059;-63
2024/02/02 12:18:16;;;;;;;55.10;16.77;;;;;;;;;;5107895;28;20260;-63
2024/02/02 12:20:41;;;;;;;53.93;17.63;;;;;;;;;;5117453;28;20267;-64
2024/02/02 12:23:08;;;;;;;58.13;17.80;;;;;;;;;;5112409;28;20329;-61
2024/02/02 12:25:34;;;;;;;51.00;17.57;;;;;;;;;;5105530;28;20028;-60
2024/02/02 12:28:00;;;;;;;55.33;18.13;;;;;;;;;;5114743;28;20304;-61
2024/02/02 12:30:25;;;;;;;55.22;17.92;;;;;;;;;;5109934;28;20032;-60
2024/02/02 12:32:54;;;;;;;41.30;17.77;;;;;;;;;;5114436;28;20092;-62
2024/02/02 12:35:23;;;;;;;57.57;17.67;;;;;;;;;;5113536;28;20028;-61
2024/02/02 12:37:50;;;;;;;56.13;17.37;;;;;;;;;;5106036;28;20833;-60
2024/02/02 12:40:16;;;;;;;53.10;17.97;;;;;;;;;;5104112;28;20280;-60
2024/02/02 12:42:41;;;;;;;55.13;18.47;;;;;;;;;;5111246;28;20266;-61
2024/02/02 12:45:15;;;;;;;63.78;19.25;;;;;;;;;;5113884;28;20035;-62
2024/02/02 12:47:41;;;;;;;56.50;18.20;;;;;;;;;;5108770;28;20052;-61
2024/02/02 12:50:21;;;;;;;48.25;18.73;;;;;;;;;;5113708;28;20253;-61
2024/02/02 12:52:47;;;;;;;59.53;22.17;;;;;;;;;;5114896;28;20043;-61
2024/02/02 12:55:13;;;;;;;60.40;24.33;;;;;;;;;;5114903;28;20268;-60
2024/02/02 12:57:40;;;;;;;72.43;23.47;;;;;;;;;;5122932;28;20261;-60
2024/02/02 13:00:06;;;;;;;61.50;21.23;;;;;;;;;;5117657;28;20028;-61
2024/02/02 13:02:32;;;;;;;70.85;24.33;;;;;;;;;;5127995;28;20296;-60
2024/02/02 13:04:58;;;;;;;62.25;21.02;;;;;;;;;;5114627;28;20036;-60
2024/02/02 13:07:23;;;;;;;73.20;23.23;;;;;;;;;;5114282;28;20032;-61
2024/02/02 13:09:51;;;;;;;69.88;23.42;;;;;;;;;;5119696;28;20035;-61
2024/02/02 13:12:27;;;;;;;64.27;22.57;;;;;;;;;;5115921;28;20024;-61
2024/02/02 13:14:53;;;;;;;64.07;21.10;;;;;;;;;;5114515;28;20295;-62
2024/02/02 13:17:20;;;;;;;78.20;23.70;;;;;;;;;;5114709;28;20390;-61
2024/02/02 13:19:45;;;;;;;64.67;22.80;;;;;;;;;;5098028;28;20031;-61
2024/02/02 13:22:37;;;;;;;58.40;19.57;;;;;;;;;;5121117;28;20268;-61
2024/02/02 13:25:02;;;;;;;66.13;23.47;;;;;;;;;;5110534;28;20336;-61
2024/02/02 13:27:29;;;;;;;62.90;21.60;;;;;;;;;;5107411;28;20281;-61
2024/02/02 13:29:56;;;;;;;60.75;22.42;;;;;;;;;;5107969;28;20052;-61
2024/02/02 13:32:22;;;;;;;63.70;20.50;;;;;;;;;;5123197;28;20051;-61
2024/02/02 13:34:48;;;;;;;64.30;21.90;;;;;;;;;;5118250;28;20282;-60
2024/02/02 13:37:28;;;;;;;60.95;21.95;;;;;;;;;;5118290;28;20035;-61
2024/02/02 13:39:58;;;;;;;57.70;21.23;;;;;;;;;;5109915;28;20036;-60
2024/02/02 13:42:25;;;;;;;57.80;20.93;;;;;;;;;;5132994;28;20252;-60
2024/02/02 13:44:51;;;;;;;46.45;18.33;;;;;;;;;;5120425;28;20288;-62
2024/02/02 13:47:20;;;;;;;64.17;21.50;;;;;;;;;;5108225;28;20039;-61
2024/02/02 13:49:49;;;;;;;66.80;19.73;;;;;;;;;;5117835;28;20028;-61
2024/02/02 13:52:15;;;;;;;59.10;21.57;;;;;;;;;;5114468;28;20293;-61
2024/02/02 13:54:41;;;;;;;54.53;18.97;;;;;;;;;;5126654;28;20276;-61
2024/02/02 13:57:07;;;;;;;69.47;18.65;;;;;;;;;;5116717;28;20040;-60
2024/02/02 13:59:33;;;;;;;61.85;19.77;;;;;;;;;;5117832;28;20032;-61
2024/02/02 14:02:04;;;;;;;43.47;18.50;;;;;;;;;;5124289;28;20115;-61
2024/02/02 14:04:30;;;;;;;45.10;20.10;;;;;;;;;;5106026;28;20023;-61
2024/02/02 14:06:56;;;;;;;69.33;22.20;;;;;;;;;;5116524;28;20329;-60
2024/02/02 14:09:22;;;;;;;57.87;18.73;;;;;;;;;;5117934;28;20265;-61
2024/02/02 14:11:48;;;;;;;57.83;19.33;;;;;;;;;;5121257;28;20027;-61
2024/02/02 14:14:13;;;;;;;48.03;20.13;;;;;;;;;;5118020;28;20044;-61
2024/02/02 14:16:39;;;;;;;49.03;17.20;;;;;;;;;;5117918;28;20095;-61
2024/02/02 14:19:05;;;;;;;43.07;16.40;;;;;;;;;;5126181;28;20273;-60
2024/02/02 14:21:31;;;;;;;45.08;16.42;;;;;;;;;;5126167;28;20051;-61
2024/02/02 14:24:07;;;;;;;54.63;20.17;;;;;;;;;;5117985;28;20096;-61
2024/02/02 14:26:33;;;;;;;50.63;18.00;;;;;;;;;;5117531;28;20277;-61